Luray, KS (67649)

8:41 PM CDT on April 19, 2015 (GMT -0500)
Craven / Shiroky Farm | | Change Station
CLOSE
Current Station
Personal Weather Station
Location: Luray, KS
Elevation: 1730 ft
Nearby Weather Stations

Elev 1730 ft 39.02 °N, 98.67 °W | Updated 8 seconds ago

Mostly Cloudy
Mostly Cloudy
53.1 °F
Feels Like 53.1 °F
N
3.0
Wind Variable Wind from North
Gusts 13.0 mph

Today
High -- | Low -- °F
--% Chance of Precip.
Yesterday
High -- | Low -- °F
Precip. -- in
6:52 AM 8:15 PM
New Moon, 2% visible
Pressure 29.86 in
Visibility 10.0 miles
Clouds Mostly Cloudy 8500 ft
Dew Point 33 °F
Humidity 46%
Rainfall 0.07 in
Snow Depth Not available.
UV 0 out of 12
Pollen 5.00 out of 12
Air Quality Not available.
Flu Activity Sporadic
METAR KRSL 200053Z AUTO 34018KT 10SM BKN085 12/M02 A2986 RMK AO2 PK WND 34029/2359 SLP111 T01221022

More Conditions Fewer Conditions

Pressure 29.86 in
Visibility 10.0 miles
Clouds Mostly Cloudy 8500 ft
Dew Point 33 °F
Humidity 46%
Rainfall 0.07 in
Snow Depth Not available.
UV 0 out of 12
Pollen 5.00 out of 12
Air Quality Not available.
Flu Activity Sporadic
METAR KRSL 200053Z AUTO 34018KT 10SM BKN085 12/M02 A2986 RMK AO2 PK WND 34029/2359 SLP111 T01221022

More Conditions Fewer Conditions

10-Day Weather Forecast

Almanac

Astronomy

Apr. 19, 2015 Rise Set
Actual Time
Civil Twilight
Nautical Twilight
Astronomical Twilight
Moon
Length of Visible Light
Length of Day
Tomorrow will be .
, % of the Moon is Illuminated

Today's Extremes

State Highs State Lows

Community

WunderPhotos

Upload Photos

1,815,084 photos uploaded!

WunderBlogs® & News

Nearby

Air Quality

  Air Quality AQ Index Pollutant
Not available.

Snow Depth

Station Depth Elevation

Earthquake Activity

City Distance Mag. Time & Date
Minimum magnitude displayed is 2.5.

Coastal Water Temperatures

Place Temperature

Stations

Nearby Weather Stations

Station Location Temp. Windchill Dew Point Humidity Wind Precip. Elev Updated Type